Time;durP1;ratioP1;P1;durP2;ratioP2;P2;SDS_P1;SDS_P2;PMS_P1;PMS_P2;Temp;Humidity;BMP_temperature;BMP_pressure;BME280_temperature;BME280_humidity;BME280_pressure;Samples;Min_cycle;Max_cycle;Signal;HPM_P1;HPM_P2
2023/10/28 00:01:19;;;;;;;23.35;10.70;;;;;;;19.65;61.30;98946.53;2280287;76;51571;-78
2023/10/28 00:04:24;;;;;;;19.95;10.50;;;;;;;19.67;61.28;98950.34;2328430;75;50231;-78
2023/10/28 00:07:26;;;;;;;21.27;11.25;;;;;;;19.65;61.28;98949.22;2255309;77;23741;-78
2023/10/28 00:10:29;;;;;;;21.65;10.70;;;;;;;19.63;61.30;98948.63;2304372;77;50883;-79
2023/10/28 00:13:31;;;;;;;24.12;11.30;;;;;;;19.63;61.28;98955.86;2304007;77;52668;-77
2023/10/28 00:16:35;;;;;;;20.10;10.28;;;;;;;19.63;61.30;98962.57;2312537;75;50660;-77
2023/10/28 00:19:37;;;;;;;17.60;10.08;;;;;;;19.63;61.21;98958.02;2312531;77;51510;-78
2023/10/28 00:22:39;;;;;;;17.05;9.40;;;;;;;19.63;61.28;98960.70;2316748;76;51508;-78
2023/10/28 00:25:42;;;;;;;20.05;10.28;;;;;;;19.62;61.29;98958.23;2313724;77;51590;-78
2023/10/28 00:28:44;;;;;;;18.32;10.35;;;;;;;19.62;61.28;98955.55;2280084;77;51813;-77
2023/10/28 00:31:47;;;;;;;17.70;9.93;;;;;;;19.61;61.29;98965.47;2280334;77;51629;-77
2023/10/28 00:34:50;;;;;;;18.35;10.00;;;;;;;19.61;61.21;98959.30;2328731;75;51338;-76
2023/10/28 00:37:52;;;;;;;19.55;10.53;;;;;;;19.61;61.19;98952.59;2223578;78;51211;-77
2023/10/28 00:40:54;;;;;;;21.87;10.13;;;;;;;19.61;61.18;98956.08;2218788;78;51503;-76
2023/10/28 00:43:56;;;;;;;24.60;10.88;;;;;;;19.60;61.20;98963.84;2242430;78;51386;-77
2023/10/28 00:46:59;;;;;;;16.95;10.00;;;;;;;19.58;61.19;98961.91;2242665;77;50631;-77
2023/10/28 00:50:02;;;;;;;23.95;10.32;;;;;;;19.57;61.21;98962.44;2275119;78;50275;-78
2023/10/28 00:53:05;;;;;;;17.40;10.03;;;;;;;19.59;61.18;98964.87;2242468;78;51630;-77
2023/10/28 00:56:07;;;;;;;16.97;9.18;;;;;;;19.58;61.16;98965.94;2275238;78;50322;-77
2023/10/28 00:59:10;;;;;;;18.65;9.73;;;;;;;19.58;61.16;98967.28;2275316;77;50394;-76
2023/10/28 01:02:13;;;;;;;22.05;9.90;;;;;;;19.57;61.14;98962.44;2260026;77;51218;-75
2023/10/28 01:05:16;;;;;;;16.70;8.98;;;;;;;19.55;61.16;98954.33;2335089;75;51527;-76
2023/10/28 01:08:18;;;;;;;18.10;9.30;;;;;;;19.56;61.23;98958.64;2358468;74;50853;-76
2023/10/28 01:11:21;;;;;;;18.32;9.90;;;;;;;19.56;61.21;98954.61;2326279;75;50388;-77
2023/10/28 01:14:23;;;;;;;17.30;9.43;;;;;;;19.55;61.21;98955.67;2361397;74;51578;-77
2023/10/28 01:17:25;;;;;;;18.77;9.45;;;;;;;19.55;61.21;98951.65;2318667;75;52677;-77
2023/10/28 01:20:28;;;;;;;22.32;9.98;;;;;;;19.56;61.24;98957.30;2280041;77;51491;-76
2023/10/28 01:23:31;;;;;;;18.05;9.00;;;;;;;19.54;61.20;98957.52;2279819;77;51548;-77
2023/10/28 01:26:34;;;;;;;17.67;8.95;;;;;;;19.54;61.22;98949.47;2281690;75;50115;-77
2023/10/28 01:29:36;;;;;;;20.75;9.80;;;;;;;19.53;61.21;98956.42;2314914;77;50086;-77
2023/10/28 01:32:38;;;;;;;17.37;9.68;;;;;;;19.55;61.20;98956.48;2313187;77;50746;-76
2023/10/28 01:35:41;;;;;;;20.20;9.93;;;;;;;19.54;61.19;98958.05;2268936;75;51414;-77
2023/10/28 01:38:43;;;;;;;20.40;9.23;;;;;;;19.52;61.18;98954.27;2352962;74;50601;-78
2023/10/28 01:41:45;;;;;;;18.80;8.90;;;;;;;19.51;61.24;98953.14;2326147;75;51688;-78
2023/10/28 01:44:50;;;;;;;19.57;8.73;;;;;;;19.51;61.27;98958.52;2326399;75;51347;-77
2023/10/28 01:47:54;;;;;;;17.48;8.90;;;;;;;19.53;61.23;98959.11;2326155;75;50598;-77
2023/10/28 01:50:56;;;;;;;15.93;8.53;;;;;;;19.54;61.11;98955.36;2326042;75;52171;-77
2023/10/28 01:53:59;;;;;;;15.43;8.95;;;;;;;19.54;61.06;98955.36;2358382;75;52142;-77
2023/10/28 01:57:09;;;;;;;18.67;8.38;;;;;;;19.52;61.19;98954.27;2358584;74;51528;-78
2023/10/28 02:00:12;;;;;;;19.60;9.08;;;;;;;19.52;61.13;98948.91;2326747;75;22788;-78
2023/10/28 02:03:15;;;;;;;18.42;8.70;;;;;;;19.54;61.15;98950.00;2320853;75;50806;-76
2023/10/28 02:06:17;;;;;;;17.98;8.63;;;;;;;19.53;61.11;98955.08;2328429;75;50319;-78
2023/10/28 02:09:19;;;;;;;16.35;8.88;;;;;;;19.52;61.11;98946.22;2280008;77;50683;-76
2023/10/28 02:12:21;;;;;;;18.30;8.18;;;;;;;19.50;61.13;98948.31;2279837;77;50588;-77
2023/10/28 02:15:23;;;;;;;20.27;8.68;;;;;;;19.50;61.12;98952.86;2254980;77;51067;-77
